Time;durP1;ratioP1;P1;durP2;ratioP2;P2;SDS_P1;SDS_P2;PMS_P1;PMS_P2;Temp;Humidity;BMP_temperature;BMP_pressure;BME280_temperature;BME280_humidity;BME280_pressure;Samples;Min_cycle;Max_cycle;Signal;HPM_P1;HPM_P2
2021/04/19 00:02:07;;;;;;;15.88;11.13;;;10.60;99.90;;;;;;4956482;29;20027;-79
2021/04/19 00:04:33;;;;;;;19.90;10.57;;;10.60;99.90;;;;;;4956722;29;20085;-76
2021/04/19 00:06:58;;;;;;;15.23;10.65;;;10.60;99.90;;;;;;4956434;29;20039;-78
2021/04/19 00:09:24;;;;;;;15.43;10.02;;;10.60;99.90;;;;;;4956422;29;20396;-76
2021/04/19 00:11:50;;;;;;;15.80;10.70;;;10.60;99.90;;;;;;4956174;29;20392;-77
2021/04/19 00:14:16;;;;;;;13.93;10.23;;;10.60;99.90;;;;;;4956160;29;20433;-76
2021/04/19 00:16:41;;;;;;;15.75;11.45;;;10.60;99.90;;;;;;4956442;29;20041;-77
2021/04/19 00:19:07;;;;;;;13.70;10.23;;;10.70;99.90;;;;;;4955962;29;20039;-77
2021/04/19 00:21:33;;;;;;;16.73;10.45;;;10.70;99.90;;;;;;4955976;29;20115;-76
2021/04/19 00:23:58;;;;;;;12.65;10.05;;;10.70;99.90;;;;;;4955083;29;20447;-77
2021/04/19 00:26:24;;;;;;;14.30;10.00;;;10.70;99.90;;;;;;4954046;29;20519;-78
2021/04/19 00:28:50;;;;;;;17.75;10.73;;;10.70;99.90;;;;;;4953592;29;20039;-79
2021/04/19 00:31:16;;;;;;;15.60;9.80;;;10.60;99.90;;;;;;4954111;29;20392;-78
2021/04/19 00:33:42;;;;;;;12.85;9.82;;;10.60;99.90;;;;;;4954050;29;20051;-78
2021/04/19 00:36:08;;;;;;;14.93;9.98;;;10.60;99.90;;;;;;4952844;28;20031;-79
2021/04/19 00:38:34;;;;;;;13.82;9.57;;;10.60;99.90;;;;;;4954351;29;20039;-77
2021/04/19 00:41:01;;;;;;;14.85;10.07;;;10.60;99.90;;;;;;4955485;29;20094;-77
2021/04/19 00:43:27;;;;;;;13.70;9.90;;;10.60;99.90;;;;;;4955613;29;20028;-78
2021/04/19 00:46:02;;;;;;;16.15;9.85;;;10.60;99.90;;;;;;4955358;29;20035;-77
2021/04/19 00:48:28;;;;;;;13.25;9.45;;;10.60;99.90;;;;;;4955520;29;20500;-79
2021/04/19 00:50:55;;;;;;;12.88;9.45;;;10.60;99.90;;;;;;4954711;28;20101;-78
2021/04/19 00:53:25;;;;;;;12.65;8.75;;;10.60;99.90;;;;;;4956189;28;20055;-78
2021/04/19 00:55:52;;;;;;;12.50;9.05;;;10.60;99.90;;;;;;4963867;28;20019;-76
2021/04/19 00:58:21;;;;;;;15.02;9.43;;;10.50;99.90;;;;;;4955095;29;20031;-79
2021/04/19 01:00:47;;;;;;;17.83;10.13;;;10.50;99.90;;;;;;4953578;29;20027;-78
2021/04/19 01:03:13;;;;;;;15.40;10.32;;;10.50;99.90;;;;;;4954910;29;20031;-79
2021/04/19 01:05:40;;;;;;;13.65;10.07;;;10.50;99.90;;;;;;4955292;29;20046;-79
2021/04/19 01:08:07;;;;;;;18.42;12.90;;;10.60;99.90;;;;;;4954970;29;20404;-79
2021/04/19 01:10:34;;;;;;;17.15;12.32;;;10.50;99.90;;;;;;4955300;29;20102;-78
2021/04/19 01:13:01;;;;;;;18.48;10.43;;;10.50;99.90;;;;;;4954870;29;20039;-77
2021/04/19 01:15:26;;;;;;;18.20;10.93;;;10.50;99.90;;;;;;4954871;29;20040;-76
2021/04/19 01:17:52;;;;;;;16.50;10.52;;;10.50;99.90;;;;;;4954891;29;20198;-79
2021/04/19 01:20:24;;;;;;;13.95;10.20;;;10.50;99.90;;;;;;4954959;29;20042;-78
2021/04/19 01:22:50;;;;;;;15.35;10.23;;;10.50;99.90;;;;;;4954853;29;20122;-77
2021/04/19 01:25:23;;;;;;;17.23;10.80;;;10.40;99.90;;;;;;4955191;29;20123;-76
2021/04/19 01:27:50;;;;;;;15.00;9.98;;;10.40;99.90;;;;;;4954811;29;20027;-78
2021/04/19 01:30:17;;;;;;;15.55;11.00;;;10.40;99.90;;;;;;4955274;29;20086;-77
2021/04/19 01:32:44;;;;;;;15.68;10.18;;;10.40;99.90;;;;;;4954425;29;20043;-78
2021/04/19 01:35:18;;;;;;;14.43;10.65;;;10.40;99.90;;;;;;4954462;29;20034;-77
2021/04/19 01:37:44;;;;;;;17.05;11.45;;;10.40;99.90;;;;;;4954810;29;20042;-76
2021/04/19 01:40:14;;;;;;;14.95;10.88;;;10.40;99.90;;;;;;4954608;29;20039;-78
2021/04/19 01:42:40;;;;;;;18.08;10.65;;;10.40;99.90;;;;;;4954595;29;20033;-77
2021/04/19 01:45:07;;;;;;;17.15;11.38;;;10.40;99.90;;;;;;4954470;29;20102;-79
2021/04/19 01:47:33;;;;;;;16.60;11.25;;;10.30;99.90;;;;;;4954890;28;20031;-76
2021/04/19 01:50:05;;;;;;;19.27;11.02;;;10.30;99.90;;;;;;4937202;29;20027;-79
2021/04/19 01:52:30;;;;;;;14.90;10.48;;;10.30;99.90;;;;;;4937266;29;20077;-78
2021/04/19 01:54:56;;;;;;;18.65;11.57;;;10.30;99.90;;;;;;4954343;29;20077;-79
2021/04/19 01:57:21;;;;;;;17.02;11.25;;;10.20;99.90;;;;;;4954515;29;20024;-78
2021/04/19 01:59:47;;;;;;;18.77;11.00;;;10.20;99.90;;;;;;4954509;29;20039;-79
2021/04/19 02:02:24;;;;;;;16.63;11.65;;;10.20;99.90;;;;;;4954590;29;20038;-76
2021/04/19 02:05:04;;;;;;;16.30;10.77;;;10.20;99.90;;;;;;4953894;29;20031;-76
2021/04/19 02:08:00;;;;;;;13.48;10.10;;;10.10;99.90;;;;;;4953999;29;20031;-76
2021/04/19 02:10:46;;;;;;;16.15;11.52;;;10.10;99.90;;;;;;4958132;28;20043;-76
2021/04/19 02:13:34;;;;;;;14.45;10.40;;;10.10;99.90;;;;;;4954611;28;20079;-77
2021/04/19 02:16:26;;;;;;;15.90;10.98;;;10.10;99.90;;;;;;4954062;29;20035;-78
2021/04/19 02:19:00;;;;;;;18.33;11.45;;;10.10;99.90;;;;;;4953083;29;20059;-77
2021/04/19 02:21:49;;;;;;;17.42;11.95;;;10.10;99.90;;;;;;4936853;29;20465;-77
2021/04/19 02:24:22;;;;;;;17.17;11.27;;;10.20;99.90;;;;;;4953828;29;20039;-77
2021/04/19 02:26:57;;;;;;;16.67;11.30;;;10.10;99.90;;;;;;4953687;29;20023;-76
2021/04/19 02:29:37;;;;;;;16.67;11.43;;;10.10;99.90;;;;;;4953718;29;20039;-77
2021/04/19 02:32:08;;;;;;;22.63;12.32;;;10.10;99.90;;;;;;4953611;29;20075;-77
2021/04/19 02:34:36;;;;;;;15.10;11.85;;;10.10;99.90;;;;;;4952973;29;20114;-76
2021/04/19 02:37:03;;;;;;;16.13;11.38;;;10.10;99.90;;;;;;4953770;29;20480;-77
2021/04/19 02:39:37;;;;;;;17.00;10.48;;;10.10;99.90;;;;;;4936377;29;20075;-76
2021/04/19 02:42:04;;;;;;;16.67;11.15;;;10.10;99.90;;;;;;4953884;29;20035;-77
2021/04/19 02:44:30;;;;;;;17.05;10.07;;;10.10;99.90;;;;;;4953701;29;20042;-76
2021/04/19 02:46:56;;;;;;;12.98;9.50;;;10.00;99.90;;;;;;4953382;29;20461;-77
2021/04/19 02:49:26;;;;;;;17.48;9.88;;;10.00;99.90;;;;;;4953256;29;20154;-77
2021/04/19 02:51:54;;;;;;;15.63;10.48;;;10.00;99.90;;;;;;4953280;29;20681;-77
2021/04/19 02:54:22;;;;;;;13.32;10.25;;;10.00;99.90;;;;;;4953280;29;20067;-78
2021/04/19 02:56:49;;;;;;;12.40;9.23;;;10.00;99.90;;;;;;4953872;29;20042;-78
2021/04/19 02:59:18;;;;;;;13.13;9.60;;;10.00;99.90;;;;;;4957363;28;20039;-77
2021/04/19 03:01:49;;;;;;;18.25;10.77;;;9.90;99.90;;;;;;4959888;28;20035;-77
2021/04/19 03:04:18;;;;;;;17.10;9.98;;;9.90;99.90;;;;;;4942632;29;20032;-78
2021/04/19 03:06:49;;;;;;;13.15;9.30;;;9.90;99.90;;;;;;4959834;28;20031;-77
2021/04/19 03:09:16;;;;;;;12.40;9.77;;;9.90;99.90;;;;;;4962963;28;20034;-79
2021/04/19 03:11:48;;;;;;;18.83;9.77;;;9.90;99.90;;;;;;4960971;28;20444;-78
2021/04/19 03:14:16;;;;;;;14.48;9.70;;;9.90;99.90;;;;;;4959692;28;20133;-78
2021/04/19 03:16:47;;;;;;;12.30;9.15;;;9.90;99.90;;;;;;4942971;29;20115;-77
2021/04/19 03:19:15;;;;;;;10.95;8.63;;;9.90;99.90;;;;;;4959601;28;20051;-77
2021/04/19 03:21:41;;;;;;;13.27;9.50;;;9.90;99.90;;;;;;4959992;28;20024;-77
2021/04/19 03:24:09;;;;;;;14.50;9.20;;;9.90;99.90;;;;;;4959795;29;20031;-78
2021/04/19 03:26:36;;;;;;;12.48;9.15;;;9.90;99.90;;;;;;4959765;28;20045;-78
2021/04/19 03:29:03;;;;;;;11.73;8.85;;;9.90;99.90;;;;;;4959309;29;20042;-77
2021/04/19 03:31:36;;;;;;;14.35;9.80;;;9.80;99.90;;;;;;4959437;29;20023;-76
2021/04/19 03:34:05;;;;;;;13.15;8.75;;;9.80;99.90;;;;;;4959345;28;20085;-78
2021/04/19 03:36:34;;;;;;;11.45;9.10;;;9.70;99.90;;;;;;4959488;29;20031;-79
2021/04/19 03:39:02;;;;;;;11.52;8.93;;;9.70;99.90;;;;;;4959617;28;20480;-77
2021/04/19 03:41:31;;;;;;;14.63;9.48;;;9.70;99.90;;;;;;4959455;29;20102;-76
2021/04/19 03:44:02;;;;;;;14.45;9.23;;;9.70;99.90;;;;;;4959481;29;20488;-77
2021/04/19 03:46:29;;;;;;;13.45;9.85;;;9.60;99.90;;;;;;4959451;29;20059;-78
2021/04/19 03:49:00;;;;;;;12.60;8.93;;;9.60;99.90;;;;;;4959856;28;20158;-77
2021/04/19 03:51:27;;;;;;;19.33;10.15;;;9.50;99.90;;;;;;4959449;28;20102;-76
2021/04/19 03:53:56;;;;;;;16.15;10.02;;;9.60;99.90;;;;;;4959730;29;20070;-76
2021/04/19 03:56:25;;;;;;;14.63;9.95;;;9.50;99.90;;;;;;4959014;29;20122;-77
2021/04/19 03:58:52;;;;;;;13.98;10.75;;;9.50;99.90;;;;;;4959407;29;20066;-78
2021/04/19 04:01:20;;;;;;;14.70;11.05;;;9.50;99.90;;;;;;4959296;29;20039;-78
2021/04/19 04:03:48;;;;;;;19.42;10.32;;;9.40;99.90;;;;;;4959396;28;20027;-77
2021/04/19 04:06:15;;;;;;;15.48;10.55;;;9.40;99.90;;;;;;4959458;28;20679;-77
2021/04/19 04:08:41;;;;;;;15.20;11.20;;;9.40;99.90;;;;;;4959532;29;20031;-77
2021/04/19 04:11:09;;;;;;;17.95;10.30;;;9.40;99.90;;;;;;4955703;28;20432;-76
2021/04/19 04:13:35;;;;;;;16.52;11.13;;;9.40;99.90;;;;;;4956534;29;20510;-77
2021/04/19 04:16:02;;;;;;;22.48;11.35;;;9.40;99.90;;;;;;4938136;29;20130;-77
2021/04/19 04:18:28;;;;;;;16.70;10.95;;;9.40;99.90;;;;;;4953797;29;20040;-77
2021/04/19 04:20:54;;;;;;;13.98;10.45;;;9.40;99.90;;;;;;4954270;29;20027;-77
2021/04/19 04:23:20;;;;;;;16.98;11.13;;;9.40;99.90;;;;;;4955016;29;20031;-77
2021/04/19 04:25:46;;;;;;;17.00;10.93;;;9.40;99.90;;;;;;4955393;29;20035;-76
2021/04/19 04:28:13;;;;;;;18.45;11.63;;;9.30;99.90;;;;;;4956090;29;20139;-76
2021/04/19 04:30:40;;;;;;;15.38;11.50;;;9.40;99.90;;;;;;4956135;29;20512;-76
2021/04/19 04:33:07;;;;;;;15.73;11.45;;;9.50;99.90;;;;;;4955945;29;20234;-77
2021/04/19 04:35:35;;;;;;;16.15;11.10;;;9.50;99.90;;;;;;4956053;29;20046;-77
2021/04/19 04:38:01;;;;;;;16.27;10.10;;;9.50;99.90;;;;;;4955999;29;20051;-75
2021/04/19 04:40:31;;;;;;;16.90;11.45;;;9.60;99.90;;;;;;4953953;28;20039;-76
2021/04/19 04:43:06;;;;;;;19.33;11.75;;;9.60;99.90;;;;;;4962213;28;20035;-77
2021/04/19 04:45:33;;;;;;;16.38;10.98;;;9.70;99.90;;;;;;4959040;28;20093;-77
2021/04/19 04:48:00;;;;;;;19.75;12.05;;;10.00;99.90;;;;;;4955424;29;20127;-77
2021/04/19 04:50:34;;;;;;;18.23;11.82;;;10.10;99.90;;;;;;4957709;28;20082;-76
2021/04/19 04:53:09;;;;;;;19.05;11.48;;;10.30;99.90;;;;;;4951906;29;20050;-76
2021/04/19 04:55:36;;;;;;;15.02;10.45;;;10.50;99.90;;;;;;4954524;29;20115;-78
2021/04/19 04:58:05;;;;;;;14.90;11.27;;;10.90;99.90;;;;;;4954952;29;20031;-79
2021/04/19 05:00:32;;;;;;;17.20;11.27;;;11.50;99.90;;;;;;4955158;29;20035;-76
2021/04/19 05:02:58;;;;;;;13.95;10.88;;;11.90;99.90;;;;;;4937697;29;20507;-76
2021/04/19 05:05:24;;;;;;;15.77;10.50;;;12.20;99.90;;;;;;4955050;29;20031;-77
2021/04/19 05:07:51;;;;;;;22.38;11.38;;;12.60;99.90;;;;;;4955443;29;20062;-78
2021/04/19 05:10:18;;;;;;;15.27;10.98;;;12.90;99.90;;;;;;4955273;29;20083;-76
2021/04/19 05:12:44;;;;;;;18.02;11.43;;;13.10;99.90;;;;;;4954855;29;20035;-77
2021/04/19 05:15:13;;;;;;;19.90;10.50;;;13.50;99.90;;;;;;4955215;29;20047;-77
2021/04/19 05:17:43;;;;;;;15.52;11.45;;;13.90;99.90;;;;;;4955465;29;20405;-79
2021/04/19 05:20:09;;;;;;;19.35;10.98;;;14.40;99.90;;;;;;4955132;29;20023;-79
2021/04/19 05:22:35;;;;;;;18.00;11.48;;;15.00;99.90;;;;;;4954545;28;20063;-79
2021/04/19 05:25:03;;;;;;;14.18;10.48;;;15.60;99.90;;;;;;4953954;28;20069;-76
2021/04/19 05:27:30;;;;;;;18.27;10.30;;;16.10;99.90;;;;;;4952656;29;20467;-76
2021/04/19 05:29:56;;;;;;;15.02;9.60;;;16.60;99.90;;;;;;4953508;29;20645;-75
2021/04/19 05:32:22;;;;;;;14.57;9.25;;;17.00;99.00;;;;;;4953539;29;20031;-76
2021/04/19 05:34:49;;;;;;;14.80;10.18;;;17.70;98.00;;;;;;4938007;29;20061;-78
2021/04/19 05:37:19;;;;;;;22.40;10.00;;;18.00;97.00;;;;;;4945162;29;20042;-76
2021/04/19 05:39:46;;;;;;;19.08;9.35;;;18.20;96.50;;;;;;4953503;29;20031;-77
2021/04/19 05:42:14;;;;;;;13.10;9.20;;;18.40;96.10;;;;;;4953076;29;20498;-76
2021/04/19 05:44:41;;;;;;;12.73;9.07;;;18.60;95.50;;;;;;4954186;29;20463;-75
2021/04/19 05:47:08;;;;;;;11.68;9.05;;;18.80;95.00;;;;;;4954088;29;20507;-77
2021/04/19 05:49:34;;;;;;;10.85;8.38;;;19.00;94.50;;;;;;4954348;29;20480;-75
2021/04/19 05:52:03;;;;;;;12.68;9.43;;;19.30;93.70;;;;;;4953621;29;20074;-83
2021/04/19 05:54:30;;;;;;;17.85;10.35;;;19.50;93.10;;;;;;4953656;29;20096;-75
2021/04/19 05:57:08;;;;;;;16.05;9.10;;;19.70;92.80;;;;;;4953773;29;20034;-83
2021/04/19 05:59:52;;;;;;;15.60;8.15;;;20.00;92.40;;;;;;4953320;29;20088;-75
2021/04/19 06:02:33;;;;;;;11.40;8.40;;;20.20;92.00;;;;;;4954301;29;20037;-76
2021/04/19 06:05:12;;;;;;;10.80;8.25;;;20.30;91.20;;;;;;4953839;29;20038;-77
2021/04/19 06:07:51;;;;;;;11.07;8.65;;;20.20;91.10;;;;;;4954410;29;20039;-75
2021/04/19 06:10:26;;;;;;;16.23;8.10;;;19.80;91.40;;;;;;4954395;29;20031;-75
2021/04/19 06:12:54;;;;;;;11.32;7.65;;;19.90;91.40;;;;;;4954673;29;20042;-84
2021/04/19 06:15:23;;;;;;;11.52;8.02;;;19.70;91.00;;;;;;4953853;29;20050;-76
2021/04/19 06:17:51;;;;;;;9.32;7.93;;;19.70;91.40;;;;;;4954277;29;20054;-85
2021/04/19 06:20:19;;;;;;;10.38;8.00;;;19.90;91.00;;;;;;4953989;29;20122;-85
2021/04/19 06:22:52;;;;;;;9.35;7.90;;;20.10;90.80;;;;;;4954496;29;20122;-77
2021/04/19 06:25:19;;;;;;;15.40;7.90;;;20.40;90.50;;;;;;4954384;29;20429;-77
2021/04/19 06:27:45;;;;;;;9.68;7.15;;;20.90;89.90;;;;;;4953748;29;20035;-76
2021/04/19 06:30:19;;;;;;;9.95;7.43;;;21.40;88.70;;;;;;4954350;29;20082;-77
2021/04/19 06:32:47;;;;;;;10.88;7.82;;;21.90;87.10;;;;;;4951921;28;20488;-77
2021/04/19 06:35:15;;;;;;;8.43;6.15;;;22.20;86.20;;;;;;4952672;29;20071;-80
2021/04/19 06:37:41;;;;;;;10.98;6.70;;;22.50;84.50;;;;;;4953764;29;20030;-77
2021/04/19 06:40:07;;;;;;;10.32;7.40;;;22.10;83.90;;;;;;4954001;29;20090;-79
2021/04/19 06:42:34;;;;;;;9.38;6.22;;;21.90;84.70;;;;;;4953750;29;20046;-77
2021/04/19 06:45:04;;;;;;;11.88;6.35;;;22.00;84.00;;;;;;4954422;29;20024;-78
2021/04/19 06:47:34;;;;;;;10.07;5.97;;;22.10;83.30;;;;;;4955010;29;20119;-77
2021/04/19 06:50:01;;;;;;;8.23;5.93;;;21.70;83.40;;;;;;4955386;29;20043;-85
2021/04/19 06:52:27;;;;;;;10.82;5.53;;;21.40;83.50;;;;;;4954042;29;20027;-87
2021/04/19 06:54:54;;;;;;;8.52;5.50;;;21.10;83.70;;;;;;4953397;29;20046;-82
2021/04/19 06:57:21;;;;;;;8.43;6.25;;;20.90;84.20;;;;;;4953376;29;20122;-78
2021/04/19 06:59:47;;;;;;;11.80;5.63;;;21.10;84.70;;;;;;4953559;29;20165;-81
2021/04/19 07:02:22;;;;;;;6.57;5.13;;;21.50;83.50;;;;;;4953027;29;20126;-80
2021/04/19 07:04:52;;;;;;;14.55;5.55;;;22.30;82.10;;;;;;4953456;29;20039;-83
2021/04/19 07:07:23;;;;;;;6.75;5.20;;;22.70;80.90;;;;;;4947913;29;20044;-83
2021/04/19 07:09:51;;;;;;;7.15;5.65;;;22.60;80.00;;;;;;4950244;29;20129;-76
2021/04/19 07:12:20;;;;;;;8.77;5.45;;;21.70;80.80;;;;;;4949490;29;20062;-83
2021/04/19 07:14:53;;;;;;;10.25;5.38;;;21.30;82.60;;;;;;4952910;29;20061;-80
2021/04/19 07:17:19;;;;;;;19.75;5.95;;;21.70;82.30;;;;;;4949466;29;20031;-77
2021/04/19 07:19:45;;;;;;;8.95;5.38;;;21.80;81.40;;;;;;4948757;29;20102;-82
2021/04/19 07:22:14;;;;;;;6.50;5.15;;;22.10;80.90;;;;;;4952727;29;20019;-78
2021/04/19 07:24:40;;;;;;;5.55;4.70;;;22.10;80.00;;;;;;4952422;29;20023;-76
2021/04/19 07:27:09;;;;;;;13.88;5.78;;;21.60;80.00;;;;;;4952879;29;20540;-82
2021/04/19 07:29:35;;;;;;;10.20;5.15;;;21.70;80.60;;;;;;4952562;29;20103;-78
2021/04/19 07:32:01;;;;;;;9.07;5.20;;;21.20;80.40;;;;;;4952826;29;20555;-84
2021/04/19 07:34:29;;;;;;;10.18;5.90;;;20.50;82.10;;;;;;4952769;29;20047;-79
2021/04/19 07:37:05;;;;;;;13.82;6.80;;;20.10;83.20;;;;;;4952553;29;20019;-84
2021/04/19 07:39:36;;;;;;;7.03;5.75;;;19.90;83.90;;;;;;4950287;29;20039;-74
2021/04/19 07:42:04;;;;;;;;;;;20.00;84.00;;;;;;4953308;29;20031;-76
2021/04/19 07:44:53;;;;;;;14.50;6.30;;;20.20;82.70;;;;;;4953248;28;19934;-83
2021/04/19 07:47:22;;;;;;;10.07;4.68;;;20.10;83.50;;;;;;4953438;29;20042;-76
2021/04/19 07:49:57;;;;;;;6.93;4.15;;;20.50;82.70;;;;;;4956137;29;20445;-74
2021/04/19 07:52:23;;;;;;;5.97;4.05;;;20.90;81.70;;;;;;4954460;29;20054;-76
2021/04/19 07:55:13;;;;;;;6.65;4.93;;;21.40;79.60;;;;;;4956074;29;20043;-74
2021/04/19 07:57:40;;;;;;;4.22;3.58;;;21.50;79.00;;;;;;4956408;29;20027;-80
2021/04/19 08:00:09;;;;;;;5.15;4.20;;;21.10;78.90;;;;;;4956357;29;20038;-74
2021/04/19 08:02:35;;;;;;;3.97;3.35;;;20.40;80.10;;;;;;4955943;29;20550;-74
2021/04/19 08:05:04;;;;;;;5.32;3.97;;;20.30;81.10;;;;;;4956146;29;20071;-75
2021/04/19 08:07:32;;;;;;;9.55;3.55;;;19.90;81.40;;;;;;4956425;29;20473;-74
2021/04/19 08:09:59;;;;;;;5.47;3.97;;;19.40;81.70;;;;;;4939097;29;20042;-79
2021/04/19 08:12:36;;;;;;;5.13;3.83;;;18.90;82.70;;;;;;4955893;29;20110;-84
2021/04/19 08:15:05;;;;;;;4.47;3.17;;;18.80;83.40;;;;;;4953257;29;20157;-81
2021/04/19 08:17:32;;;;;;;5.00;3.72;;;18.80;83.70;;;;;;4955690;29;20053;-75
2021/04/19 08:19:58;;;;;;;6.82;4.45;;;18.80;83.20;;;;;;4955971;29;20031;-74
2021/04/19 08:22:29;;;;;;;9.52;6.38;;;18.70;83.00;;;;;;4955767;29;20027;-75
2021/04/19 08:25:10;;;;;;;8.57;5.20;;;18.60;83.80;;;;;;4955824;29;20365;-75
2021/04/19 08:27:36;;;;;;;9.88;5.88;;;18.50;84.70;;;;;;4954692;29;20047;-75
2021/04/19 08:30:03;;;;;;;7.15;4.47;;;18.40;84.70;;;;;;4955742;29;20027;-74
2021/04/19 08:32:30;;;;;;;7.00;4.57;;;18.40;88.70;;;;;;4955427;29;20035;-75
2021/04/19 08:34:57;;;;;;;6.15;4.25;;;18.50;89.60;;;;;;4955402;29;20511;-76
2021/04/19 08:37:27;;;;;;;10.57;5.00;;;18.70;88.70;;;;;;4951378;29;20408;-77
2021/04/19 08:39:58;;;;;;;11.52;5.03;;;19.00;90.30;;;;;;4955670;29;20042;-74
2021/04/19 08:42:25;;;;;;;16.83;5.15;;;19.20;90.60;;;;;;4954995;29;20492;-75
2021/04/19 08:44:55;;;;;;;7.13;5.50;;;19.30;90.40;;;;;;4955456;29;20165;-75
2021/04/19 08:47:20;;;;;;;13.75;6.53;;;19.50;90.40;;;;;;4955288;29;20041;-84
2021/04/19 08:49:47;;;;;;;6.22;4.97;;;19.80;90.80;;;;;;4955165;29;20023;-76
2021/04/19 08:52:17;;;;;;;8.60;5.50;;;20.00;90.10;;;;;;4955518;29;20073;-76
2021/04/19 08:54:44;;;;;;;9.75;6.60;;;20.20;90.00;;;;;;4955302;29;20046;-74
2021/04/19 08:57:10;;;;;;;23.80;7.60;;;20.20;90.20;;;;;;4954441;28;20062;-75
2021/04/19 08:59:36;;;;;;;13.45;5.88;;;20.00;89.90;;;;;;4954912;29;20071;-75
2021/04/19 09:02:03;;;;;;;8.57;6.47;;;20.00;89.50;;;;;;4954216;29;20126;-75
2021/04/19 09:04:29;;;;;;;11.18;6.53;;;20.00;89.90;;;;;;4954922;29;20039;-75
2021/04/19 09:06:55;;;;;;;10.50;5.40;;;20.10;89.10;;;;;;4954662;29;20042;-76
2021/04/19 09:09:37;;;;;;;10.63;5.70;;;20.10;89.30;;;;;;4955359;29;20035;-75
2021/04/19 09:12:11;;;;;;;15.43;5.47;;;19.90;90.10;;;;;;4954910;29;20028;-78
2021/04/19 09:14:39;;;;;;;7.07;5.80;;;19.60;92.20;;;;;;4954579;29;20411;-75
2021/04/19 09:17:06;;;;;;;9.98;5.38;;;19.20;93.40;;;;;;4954627;29;20485;-75
2021/04/19 09:19:35;;;;;;;7.95;6.18;;;18.70;93.60;;;;;;4954153;29;20070;-75
2021/04/19 09:22:12;;;;;;;9.07;5.88;;;18.40;94.70;;;;;;4954720;29;20027;-75
2021/04/19 09:25:00;;;;;;;7.47;6.10;;;18.10;94.70;;;;;;4954711;29;20031;-75
2021/04/19 09:27:48;;;;;;;8.52;5.82;;;17.80;95.20;;;;;;4954746;29;20035;-77
2021/04/19 09:30:19;;;;;;;8.43;6.25;;;17.50;96.20;;;;;;4954696;29;20066;-76
2021/04/19 09:32:45;;;;;;;7.53;5.95;;;17.30;95.50;;;;;;4954286;29;20038;-74
2021/04/19 09:35:46;;;;;;;7.32;6.25;;;17.10;95.70;;;;;;4954317;29;20043;-74
2021/04/19 09:38:37;;;;;;;7.57;6.50;;;16.90;95.20;;;;;;4954061;29;20039;-74
2021/04/19 09:41:04;;;;;;;8.88;6.75;;;16.80;96.30;;;;;;4948644;29;20035;-73
2021/04/19 09:43:37;;;;;;;11.32;6.38;;;16.80;96.20;;;;;;4954249;29;20039;-75
2021/04/19 09:46:04;;;;;;;12.45;7.30;;;16.70;96.60;;;;;;4954428;29;20494;-74
2021/04/19 09:48:30;;;;;;;14.20;7.00;;;16.80;96.60;;;;;;4954415;29;20049;-76
2021/04/19 09:51:12;;;;;;;17.45;6.88;;;16.70;96.30;;;;;;4954077;29;20023;-76
2021/04/19 09:53:38;;;;;;;7.60;6.45;;;16.70;96.60;;;;;;4950557;29;20079;-76
2021/04/19 09:56:04;;;;;;;10.77;7.10;;;16.70;96.50;;;;;;4951211;29;20040;-77
2021/04/19 09:58:30;;;;;;;20.30;6.88;;;16.60;96.30;;;;;;4952928;29;20050;-75
2021/04/19 10:01:00;;;;;;;9.18;6.90;;;16.50;96.50;;;;;;4954648;29;20110;-75
2021/04/19 10:03:27;;;;;;;8.73;6.70;;;16.30;97.30;;;;;;4954376;29;20059;-78
2021/04/19 10:05:55;;;;;;;8.80;6.80;;;16.10;99.00;;;;;;4953284;29;20042;-81
2021/04/19 10:08:24;;;;;;;14.20;7.43;;;16.00;98.40;;;;;;4953218;28;20031;-74
2021/04/19 10:10:54;;;;;;;10.35;7.40;;;16.00;99.80;;;;;;4954375;29;20041;-75
2021/04/19 10:13:46;;;;;;;8.95;7.03;;;16.00;99.70;;;;;;4954158;29;20130;-76
2021/04/19 10:16:13;;;;;;;11.07;6.38;;;16.00;99.90;;;;;;4951799;29;20042;-75
2021/04/19 10:18:40;;;;;;;8.68;6.85;;;15.90;99.90;;;;;;4954289;29;20043;-75
2021/04/19 10:21:08;;;;;;;9.00;7.43;;;15.70;99.90;;;;;;4953852;29;20039;-76
2021/04/19 10:23:41;;;;;;;11.60;7.72;;;15.60;99.90;;;;;;4954124;29;20377;-75
2021/04/19 10:26:08;;;;;;;7.82;6.82;;;15.60;99.90;;;;;;4954590;29;20063;-76
2021/04/19 10:28:35;;;;;;;8.80;7.30;;;15.70;99.90;;;;;;4953684;29;20059;-76
2021/04/19 10:31:19;;;;;;;11.07;8.07;;;15.90;99.90;;;;;;4953717;29;20032;-76
2021/04/19 10:33:54;;;;;;;11.43;7.57;;;16.20;99.90;;;;;;4952832;29;20098;-76
2021/04/19 10:36:30;;;;;;;11.48;8.80;;;16.40;99.90;;;;;;4953979;29;20019;-84
2021/04/19 10:38:57;;;;;;;13.40;8.32;;;16.60;98.40;;;;;;4953994;29;20547;-74
2021/04/19 10:41:34;;;;;;;13.57;9.13;;;16.70;97.90;;;;;;4953574;29;20571;-76
2021/04/19 10:44:01;;;;;;;10.00;8.10;;;16.90;98.10;;;;;;4936950;29;20392;-77
2021/04/19 10:46:29;;;;;;;12.88;9.80;;;17.20;98.20;;;;;;4952903;29;20480;-75
2021/04/19 10:48:56;;;;;;;12.23;8.70;;;17.30;96.50;;;;;;4952174;29;20423;-75
2021/04/19 10:51:28;;;;;;;15.05;8.95;;;17.50;96.90;;;;;;4949782;29;20027;-76
2021/04/19 10:53:59;;;;;;;15.18;9.02;;;17.80;96.10;;;;;;4952449;29;20055;-75
2021/04/19 10:56:26;;;;;;;12.52;9.10;;;17.90;95.40;;;;;;4948119;29;20027;-76
2021/04/19 10:58:55;;;;;;;12.55;9.25;;;17.80;94.80;;;;;;4952068;29;20110;-76
2021/04/19 11:01:43;;;;;;;11.38;8.77;;;17.90;94.90;;;;;;4951912;29;20107;-76
2021/04/19 11:04:10;;;;;;;11.57;8.63;;;18.00;95.20;;;;;;4934608;29;20110;-76
2021/04/19 11:06:37;;;;;;;15.43;8.55;;;18.10;95.70;;;;;;4952684;29;20027;-76
2021/04/19 11:09:05;;;;;;;12.93;9.80;;;18.30;95.50;;;;;;4952910;29;20055;-76
2021/04/19 11:11:37;;;;;;;16.42;10.57;;;18.50;95.20;;;;;;4952661;29;20078;-76
2021/04/19 11:14:11;;;;;;;;;;;18.80;95.00;;;;;;4952307;29;20039;-78
2021/04/19 11:17:07;;;;;;;17.27;11.23;;;18.90;95.10;;;;;;4951929;29;19906;-76
2021/04/19 11:19:43;;;;;;;15.77;10.00;;;18.90;94.60;;;;;;4929121;29;20060;-75
2021/04/19 11:22:28;;;;;;;12.05;9.35;;;19.00;93.70;;;;;;4919950;29;20114;-75
2021/04/19 11:25:10;;;;;;;11.48;8.13;;;18.80;94.40;;;;;;4937179;29;20028;-73
2021/04/19 11:27:36;;;;;;;11.60;7.88;;;18.70;94.30;;;;;;4934321;29;20032;-75
2021/04/19 11:30:02;;;;;;;13.23;7.80;;;18.70;94.10;;;;;;4937085;29;20039;-76
2021/04/19 11:32:34;;;;;;;16.05;8.68;;;18.80;94.30;;;;;;4936542;29;20043;-76
2021/04/19 11:35:02;;;;;;;11.55;8.93;;;18.80;94.50;;;;;;4936218;29;20432;-75
2021/04/19 11:37:32;;;;;;;16.95;10.15;;;18.70;94.90;;;;;;4936657;29;20024;-78
2021/04/19 11:39:59;;;;;;;13.38;10.00;;;18.40;95.00;;;;;;4936916;29;20035;-75
2021/04/19 11:42:35;;;;;;;11.88;9.45;;;17.90;95.50;;;;;;4936415;29;20070;-77
2021/04/19 11:45:04;;;;;;;13.55;10.98;;;17.60;95.90;;;;;;4934980;29;20027;-75
2021/04/19 11:47:32;;;;;;;14.60;10.88;;;17.30;96.30;;;;;;4936713;29;20032;-76
2021/04/19 11:49:58;;;;;;;17.25;10.68;;;17.10;96.70;;;;;;4934187;29;20027;-80
2021/04/19 11:52:24;;;;;;;13.25;10.82;;;17.00;97.50;;;;;;4936538;29;20031;-76
2021/04/19 11:54:50;;;;;;;16.33;11.27;;;17.10;97.50;;;;;;4936266;29;20126;-76
2021/04/19 11:57:16;;;;;;;11.38;9.88;;;17.20;97.50;;;;;;4936368;29;20024;-84
2021/04/19 11:59:41;;;;;;;18.55;11.35;;;17.40;98.40;;;;;;4932358;29;20040;-82
2021/04/19 12:02:08;;;;;;;13.68;10.52;;;17.50;98.30;;;;;;4935907;29;20154;-75
2021/04/19 12:04:34;;;;;;;14.93;10.80;;;17.50;97.90;;;;;;4936291;29;20032;-77
2021/04/19 12:07:01;;;;;;;14.40;9.52;;;17.50;97.70;;;;;;4936301;29;20039;-76
2021/04/19 12:09:27;;;;;;;14.15;10.70;;;17.40;96.70;;;;;;4936462;29;20038;-83
2021/04/19 12:11:52;;;;;;;16.30;9.10;;;17.40;97.50;;;;;;4933784;29;20027;-76
2021/04/19 12:14:19;;;;;;;19.38;9.82;;;17.40;97.70;;;;;;4936513;29;20397;-86
2021/04/19 12:16:45;;;;;;;16.92;9.48;;;17.40;97.60;;;;;;4935186;29;20055;-77
2021/04/19 12:19:11;;;;;;;13.65;9.45;;;17.40;97.80;;;;;;4953438;29;20047;-76
2021/04/19 12:21:36;;;;;;;17.92;9.43;;;17.30;97.40;;;;;;4955170;29;20114;-76
2021/04/19 12:24:03;;;;;;;14.23;9.45;;;17.30;97.90;;;;;;4948754;29;20046;-80
2021/04/19 12:26:29;;;;;;;15.52;8.15;;;17.40;97.80;;;;;;4955034;29;20035;-75
2021/04/19 12:28:55;;;;;;;9.77;7.30;;;17.60;96.70;;;;;;4955536;29;20182;-76
2021/04/19 12:31:20;;;;;;;12.35;7.75;;;17.50;96.10;;;;;;4954462;28;20027;-78
2021/04/19 12:33:47;;;;;;;11.40;6.30;;;17.50;96.20;;;;;;4954738;29;20536;-76
2021/04/19 12:36:17;;;;;;;8.30;6.43;;;17.60;95.30;;;;;;4954949;29;20067;-80
2021/04/19 12:38:44;;;;;;;21.10;6.88;;;17.60;96.70;;;;;;4954560;29;20038;-76
2021/04/19 12:41:10;;;;;;;7.13;6.10;;;17.50;98.00;;;;;;4954310;29;20051;-77
2021/04/19 12:43:36;;;;;;;17.17;9.02;;;17.40;98.20;;;;;;4953100;29;20036;-79
2021/04/19 12:46:02;;;;;;;9.40;7.45;;;17.40;98.80;;;;;;4954752;29;20171;-79
2021/04/19 12:48:28;;;;;;;10.07;7.50;;;17.40;99.60;;;;;;4953768;29;20031;-81
2021/04/19 12:50:53;;;;;;;11.05;7.85;;;17.50;99.90;;;;;;4937951;29;20034;-80